createdAt,value
2022-11-07T00:00:49.935Z,118.28
2022-11-07T00:03:19.761Z,112.55
2022-11-07T00:05:48.109Z,113.00
2022-11-07T00:08:16.283Z,111.15
2022-11-07T00:10:44.426Z,112.35
2022-11-07T00:13:15.391Z,108.60
2022-11-07T00:15:44.952Z,109.47
2022-11-07T00:18:13.117Z,108.45
2022-11-07T00:20:41.292Z,108.50
2022-11-07T00:23:10.731Z,107.85
2022-11-07T00:25:40.135Z,111.00
2022-11-07T00:28:08.281Z,110.07
2022-11-07T00:30:37.855Z,112.15
2022-11-07T00:33:06.044Z,110.40
2022-11-07T00:35:34.889Z,110.95
2022-11-07T00:38:04.231Z,107.90
2022-11-07T00:40:32.715Z,110.70
2022-11-07T00:43:02.045Z,108.78
2022-11-07T00:45:30.219Z,107.90
2022-11-07T00:48:00.905Z,109.90
2022-11-07T00:50:29.062Z,109.65
2022-11-07T00:52:59.910Z,107.75
2022-11-07T00:55:28.112Z,109.90
2022-11-07T00:57:57.550Z,109.65
2022-11-07T01:00:28.542Z,110.72
2022-11-07T01:03:12.846Z,109.18
2022-11-07T01:05:42.972Z,113.60
2022-11-07T01:08:12.360Z,111.82
2022-11-07T01:10:43.071Z,119.82
2022-11-07T01:13:13.798Z,107.93
2022-11-07T01:15:42.622Z,110.32
2022-11-07T01:18:12.045Z,109.45
2022-11-07T01:20:40.948Z,114.18
2022-11-07T01:23:10.759Z,111.55
2022-11-07T01:25:42.279Z,110.03
2022-11-07T01:28:12.798Z,106.35
2022-11-07T01:30:42.112Z,106.72
2022-11-07T01:33:11.656Z,107.15
2022-11-07T01:35:42.795Z,109.18
2022-11-07T01:38:15.984Z,107.68
2022-11-07T01:40:59.386Z,107.20
2022-11-07T01:46:11.729Z,105.85
2022-11-07T01:48:43.264Z,107.32
2022-11-07T01:51:13.946Z,108.18
2022-11-07T01:53:45.188Z,111.18
2022-11-07T01:56:18.337Z,111.20
2022-11-07T01:58:49.855Z,111.05
2022-11-07T02:01:18.816Z,110.43
2022-11-07T02:03:49.278Z,112.50
2022-11-07T02:06:27.468Z,114.93
2022-11-07T02:08:57.181Z,110.35
2022-11-07T02:11:26.997Z,110.13
2022-11-07T02:13:56.398Z,111.03
2022-11-07T02:16:24.600Z,112.63
2022-11-07T02:18:54.356Z,112.55
2022-11-07T02:21:35.784Z,112.65
2022-11-07T02:24:17.126Z,114.18
2022-11-07T02:26:46.874Z,114.93
2022-11-07T02:29:18.006Z,113.00
2022-11-07T02:31:47.328Z,114.13
2022-11-07T02:34:15.484Z,120.10
2022-11-07T02:36:44.838Z,114.97
2022-11-07T02:39:15.644Z,117.13
2022-11-07T02:41:45.664Z,115.78
2022-11-07T02:44:16.831Z,113.80
2022-11-07T02:46:47.371Z,114.33
2022-11-07T02:49:17.942Z,114.72
2022-11-07T02:51:46.064Z,111.95
2022-11-07T02:54:18.030Z,110.75
2022-11-07T02:56:46.244Z,113.55
2022-11-07T02:59:16.841Z,109.72
2022-11-07T03:01:46.322Z,112.80
2022-11-07T03:04:15.788Z,108.72
2022-11-07T03:06:43.962Z,110.00
2022-11-07T03:09:12.225Z,110.97
2022-11-07T03:11:42.945Z,111.00
2022-11-07T03:14:13.494Z,108.03
2022-11-07T03:16:41.912Z,112.10
2022-11-07T03:19:11.285Z,110.05
2022-11-07T03:21:39.448Z,108.90
2022-11-07T03:24:10.224Z,109.25
2022-11-07T03:26:39.604Z,111.65
2022-11-07T03:29:09.155Z,112.03
2022-11-07T03:31:38.576Z,112.82
2022-11-07T03:34:08.074Z,111.45
2022-11-07T03:36:37.391Z,109.85
2022-11-07T03:39:07.313Z,107.90
2022-11-07T03:41:36.703Z,108.18
2022-11-07T03:44:08.097Z,108.43
2022-11-07T03:46:36.323Z,106.78
2022-11-07T03:49:04.602Z,108.85
2022-11-07T03:51:33.992Z,112.03
2022-11-07T03:54:04.456Z,108.20
2022-11-07T03:56:33.804Z,106.25
2022-11-07T03:59:03.652Z,107.28
2022-11-07T04:01:34.517Z,104.93
2022-11-07T04:04:02.790Z,106.72
2022-11-07T04:06:32.241Z,105.15
2022-11-07T04:09:03.161Z,114.90
2022-11-07T04:11:50.373Z,110.70
2022-11-07T04:14:37.241Z,109.93
2022-11-07T04:17:20.114Z,110.72
2022-11-07T04:19:52.869Z,111.95
2022-11-07T04:22:23.091Z,110.10
2022-11-07T04:24:54.003Z,113.43
2022-11-07T04:27:40.488Z,108.68
2022-11-07T04:30:26.041Z,110.35
2022-11-07T04:32:57.995Z,110.68
2022-11-07T04:35:30.894Z,107.25
2022-11-07T04:38:00.889Z,107.25
2022-11-07T04:40:31.247Z,109.35
2022-11-07T04:43:00.830Z,110.32
2022-11-07T04:45:29.008Z,108.85
2022-11-07T04:48:00.025Z,108.47
2022-11-07T04:50:29.386Z,107.25
2022-11-07T04:52:58.856Z,106.40
2022-11-07T04:55:31.819Z,106.93
2022-11-07T04:58:00.295Z,106.20
2022-11-07T05:00:30.890Z,107.43
2022-11-07T05:03:01.671Z,109.28
2022-11-07T05:05:30.119Z,109.20
2022-11-07T05:07:59.449Z,110.78
2022-11-07T05:10:31.979Z,113.30
2022-11-07T05:13:00.304Z,109.05
2022-11-07T05:15:29.676Z,111.75
2022-11-07T05:17:57.801Z,109.75
2022-11-07T05:20:34.067Z,109.95
2022-11-07T05:23:17.670Z,110.93
2022-11-07T05:25:50.098Z,114.53
2022-11-07T05:33:32.873Z,110.07
2022-11-07T05:36:12.891Z,109.85
2022-11-07T05:38:44.523Z,106.68
2022-11-07T05:41:15.578Z,104.10
2022-11-07T05:43:43.995Z,108.00
2022-11-07T05:46:15.040Z,107.78
2022-11-07T05:48:44.383Z,107.00
2022-11-07T05:51:15.333Z,107.25
2022-11-07T05:56:14.885Z,108.97
2022-11-07T05:58:43.028Z,107.50
2022-11-07T06:01:12.490Z,108.50
2022-11-07T06:03:41.808Z,110.18
2022-11-07T06:06:12.371Z,107.18
2022-11-07T06:08:43.086Z,108.47
2022-11-07T06:11:14.034Z,107.90
2022-11-07T06:13:43.378Z,108.03
2022-11-07T06:16:13.939Z,105.90
2022-11-07T06:18:42.252Z,107.20
2022-11-07T06:21:11.660Z,107.47
2022-11-07T06:23:42.434Z,107.47
2022-11-07T06:26:12.067Z,110.20
2022-11-07T06:28:40.262Z,114.93
2022-11-07T06:31:10.853Z,112.68
2022-11-07T06:33:39.082Z,110.57
2022-11-07T06:36:11.628Z,108.10
2022-11-07T06:38:42.149Z,108.85
2022-11-07T06:41:13.112Z,110.13
2022-11-07T06:43:42.214Z,110.47
2022-11-07T06:46:15.790Z,111.18
2022-11-07T06:48:45.196Z,113.30
2022-11-07T06:51:15.905Z,116.65
2022-11-07T06:53:46.917Z,111.57
2022-11-07T06:56:19.041Z,112.65
2022-11-07T07:01:19.445Z,114.60
2022-11-07T07:03:47.673Z,110.75
2022-11-07T07:06:19.402Z,109.07
2022-11-07T07:08:49.761Z,110.47
2022-11-07T07:11:19.590Z,108.40
2022-11-07T07:13:49.045Z,112.50
2022-11-07T07:16:17.578Z,109.93
2022-11-07T07:18:46.980Z,113.53
2022-11-07T07:21:17.135Z,110.38
2022-11-07T07:23:47.892Z,112.68
2022-11-07T07:26:17.592Z,119.55
2022-11-07T07:28:45.731Z,120.93
2022-11-07T07:31:26.352Z,118.78
2022-11-07T07:33:55.841Z,114.90
2022-11-07T07:36:25.525Z,115.03
2022-11-07T07:38:56.184Z,116.68
2022-11-07T07:41:24.971Z,117.43
2022-11-07T07:43:54.641Z,118.95
2022-11-07T07:46:26.273Z,120.03
2022-11-07T07:48:55.036Z,119.45
2022-11-07T07:51:25.199Z,113.80
2022-11-07T07:53:56.208Z,114.85
2022-11-07T07:56:25.552Z,112.97
2022-11-07T07:58:53.650Z,114.90
2022-11-07T08:01:24.512Z,111.05
2022-11-07T08:04:02.884Z,124.47
2022-11-07T08:06:35.070Z,119.53
2022-11-07T08:09:06.390Z,111.35
2022-11-07T08:11:35.903Z,110.40
2022-11-07T08:14:05.272Z,112.25
2022-11-07T08:16:36.280Z,112.85
2022-11-07T08:19:06.263Z,113.72
2022-11-07T08:21:36.975Z,119.25
2022-11-07T08:24:07.821Z,113.32
2022-11-07T08:26:37.364Z,116.07
2022-11-07T08:29:07.539Z,111.10
2022-11-07T08:31:38.684Z,120.35
2022-11-07T08:34:08.094Z,115.33
2022-11-07T08:36:36.297Z,117.35
2022-11-07T08:39:07.076Z,115.95
2022-11-07T08:41:36.945Z,122.22
2022-11-07T08:44:08.232Z,121.57
2022-11-07T08:46:38.353Z,126.90
2022-11-07T08:49:06.964Z,131.93
2022-11-07T08:51:37.731Z,131.18
2022-11-07T08:54:08.763Z,127.82
2022-11-07T08:56:38.433Z,121.25
2022-11-07T08:59:06.620Z,113.47
2022-11-07T09:01:56.150Z,113.85
2022-11-07T09:04:24.525Z,115.53
2022-11-07T09:06:53.978Z,118.95
2022-11-07T09:09:25.783Z,115.70
2022-11-07T09:11:54.291Z,117.55
2022-11-07T09:14:23.801Z,120.82
2022-11-07T09:16:52.356Z,119.93
2022-11-07T09:19:21.896Z,115.05
2022-11-07T09:21:50.143Z,116.40
2022-11-07T09:24:18.429Z,114.25
2022-11-07T09:26:50.417Z,117.35
2022-11-07T09:31:50.894Z,119.68
2022-11-07T09:34:19.180Z,118.40
2022-11-07T09:36:48.919Z,119.45
2022-11-07T09:39:18.486Z,117.15
2022-11-07T09:41:57.874Z,120.68
2022-11-07T09:44:44.766Z,129.35
2022-11-07T09:47:22.489Z,132.15
2022-11-07T09:49:57.070Z,140.38
2022-11-07T09:52:38.511Z,125.15
2022-11-07T09:55:17.160Z,125.35
2022-11-07T09:57:49.779Z,120.55
2022-11-07T10:00:22.049Z,115.65
2022-11-07T10:02:55.345Z,115.95
2022-11-07T10:08:08.588Z,114.43
2022-11-07T10:10:45.887Z,113.55
2022-11-07T10:13:40.637Z,114.78
2022-11-07T10:16:19.999Z,119.95
2022-11-07T10:19:05.469Z,120.32
2022-11-07T10:21:46.650Z,122.57
2022-11-07T10:24:35.247Z,118.07
2022-11-07T10:27:05.146Z,119.68
2022-11-07T10:29:45.162Z,116.20
2022-11-07T10:32:24.806Z,115.17
2022-11-07T10:35:18.396Z,116.15
2022-11-07T10:37:57.175Z,115.32
2022-11-07T10:40:34.681Z,121.93
2022-11-07T10:43:07.846Z,121.05
2022-11-07T10:45:40.788Z,118.78
2022-11-07T10:48:09.740Z,116.65
2022-11-07T10:50:41.636Z,115.55
2022-11-07T10:53:21.096Z,112.97
2022-11-07T10:55:52.616Z,114.43
2022-11-07T10:58:25.488Z,112.78
2022-11-07T11:01:07.176Z,115.80
2022-11-07T11:03:45.456Z,119.00
2022-11-07T11:06:24.832Z,120.45
2022-11-07T11:08:54.221Z,119.28
2022-11-07T11:11:33.122Z,124.45
2022-11-07T11:14:05.916Z,117.20
2022-11-07T11:16:41.186Z,117.80
2022-11-07T11:19:23.530Z,115.30
2022-11-07T11:21:56.316Z,117.35
2022-11-07T11:24:37.430Z,120.60
2022-11-07T11:27:14.539Z,116.95
2022-11-07T11:29:51.778Z,116.07
2022-11-07T11:32:29.454Z,114.40
2022-11-07T11:35:20.280Z,123.85
2022-11-07T11:37:59.312Z,122.30
2022-11-07T11:40:34.712Z,121.65
2022-11-07T11:43:19.376Z,115.18
2022-11-07T11:46:03.174Z,115.40
2022-11-07T11:48:39.885Z,110.07
2022-11-07T11:51:18.740Z,110.57
2022-11-07T11:53:48.296Z,115.10
2022-11-07T11:56:41.163Z,118.32
2022-11-07T11:59:37.901Z,129.73
2022-11-07T12:02:30.120Z,127.97
2022-11-07T12:07:56.041Z,134.48
2022-11-07T12:10:32.184Z,130.35
2022-11-07T12:13:16.126Z,134.93
2022-11-07T12:16:01.275Z,124.03
2022-11-07T12:18:38.513Z,123.43
2022-11-07T12:21:24.661Z,129.70
2022-11-07T12:24:10.984Z,118.03
2022-11-07T12:26:46.147Z,127.35
2022-11-07T12:29:25.299Z,114.78
2022-11-07T12:32:11.915Z,115.35
2022-11-07T12:35:06.937Z,121.28
2022-11-07T12:38:09.978Z,116.88
2022-11-07T12:43:40.436Z,117.28
2022-11-07T12:46:24.148Z,116.75
2022-11-07T12:49:10.935Z,118.40
2022-11-07T12:51:56.458Z,115.45
2022-11-07T12:54:40.198Z,113.35
2022-11-07T12:57:20.244Z,115.55
2022-11-07T12:59:56.888Z,116.13
2022-11-07T13:02:39.599Z,112.78
2022-11-07T13:05:36.240Z,108.32
2022-11-07T13:08:11.547Z,112.05
2022-11-07T13:10:55.358Z,114.70
2022-11-07T13:13:31.795Z,113.65
2022-11-07T13:16:16.314Z,115.60
2022-11-07T13:18:44.521Z,120.25
2022-11-07T13:21:14.330Z,113.50
2022-11-07T13:23:43.612Z,116.65
2022-11-07T13:26:45.251Z,117.68
2022-11-07T13:29:04.578Z,110.38
2022-11-07T13:31:38.451Z,112.57
2022-11-07T13:34:28.054Z,114.13
2022-11-07T13:37:05.460Z,109.28
2022-11-07T13:39:34.765Z,107.68
2022-11-07T13:42:07.701Z,107.82
2022-11-07T13:44:39.452Z,105.30
2022-11-07T13:47:14.874Z,104.35
2022-11-07T13:49:47.999Z,106.65
2022-11-07T13:52:24.026Z,106.05
2022-11-07T13:54:58.878Z,106.00
2022-11-07T13:57:36.380Z,106.25
2022-11-07T14:00:14.394Z,108.72
2022-11-07T14:02:54.041Z,105.95
2022-11-07T14:05:26.999Z,106.85
2022-11-07T14:08:03.477Z,110.28
2022-11-07T14:10:38.455Z,107.68
2022-11-07T14:13:12.106Z,107.32
2022-11-07T14:15:48.459Z,106.15
2022-11-07T14:18:20.780Z,107.28
2022-11-07T14:20:50.947Z,108.90
2022-11-07T14:23:25.056Z,109.70
2022-11-07T14:25:59.860Z,109.18
2022-11-07T14:28:36.580Z,115.80
2022-11-07T14:31:10.404Z,113.22
2022-11-07T14:33:38.575Z,113.00
2022-11-07T14:36:08.531Z,109.82
2022-11-07T14:38:47.899Z,105.88
2022-11-07T14:41:20.542Z,106.43
2022-11-07T14:43:52.587Z,109.68
2022-11-07T14:48:56.013Z,109.35
2022-11-07T14:51:28.836Z,107.38
2022-11-07T14:54:03.785Z,107.78
2022-11-07T14:56:38.184Z,107.05
2022-11-07T14:59:12.457Z,106.53
2022-11-07T15:01:55.331Z,107.97
2022-11-07T15:04:31.103Z,108.35
2022-11-07T15:07:13.416Z,110.43
2022-11-07T15:09:43.363Z,115.28
2022-11-07T15:12:20.414Z,114.53
2022-11-07T15:15:03.398Z,112.45
2022-11-07T15:17:46.870Z,109.28
2022-11-07T15:20:24.053Z,108.13
2022-11-07T15:22:53.701Z,107.95
2022-11-07T15:25:34.022Z,108.97
2022-11-07T15:28:27.108Z,103.55
2022-11-07T15:31:00.434Z,107.28
2022-11-07T15:38:32.971Z,109.72
2022-11-07T15:41:02.479Z,107.90
2022-11-07T15:43:32.244Z,113.47
2022-11-07T15:46:04.655Z,108.30
2022-11-07T15:48:41.188Z,118.35
2022-11-07T15:51:11.463Z,115.88
2022-11-07T15:53:42.149Z,118.65
2022-11-07T15:56:16.404Z,111.43
2022-11-07T15:58:45.990Z,124.05
2022-11-07T16:01:16.802Z,123.93
2022-11-07T16:03:46.383Z,126.25
2022-11-07T16:06:18.675Z,110.78
2022-11-07T16:08:49.415Z,109.97
2022-11-07T16:11:19.133Z,107.60
2022-11-07T16:13:50.908Z,111.53
2022-11-07T16:16:25.369Z,109.50
2022-11-07T16:18:54.669Z,107.55
2022-11-07T16:21:24.364Z,108.05
2022-11-07T16:23:53.114Z,113.18
2022-11-07T16:26:28.660Z,129.13
2022-11-07T16:28:58.364Z,124.28
2022-11-07T16:31:29.202Z,124.53
2022-11-07T16:33:58.581Z,127.82
2022-11-07T16:36:34.044Z,133.40
2022-11-07T16:39:05.365Z,128.32
2022-11-07T16:41:34.752Z,120.93
2022-11-07T16:44:05.488Z,125.57
2022-11-07T16:46:37.430Z,119.57
2022-11-07T16:49:14.782Z,120.45
2022-11-07T16:51:45.567Z,126.95
2022-11-07T16:54:13.719Z,134.68
2022-11-07T16:56:42.891Z,131.90
2022-11-07T16:59:17.833Z,136.52
2022-11-07T17:01:50.635Z,146.75
2022-11-07T17:04:19.112Z,135.45
2022-11-07T17:06:48.019Z,123.70
2022-11-07T17:09:20.244Z,123.00
2022-11-07T17:11:51.020Z,120.00
2022-11-07T17:14:19.505Z,111.55
2022-11-07T17:16:51.171Z,112.13
2022-11-07T17:19:20.857Z,110.25
2022-11-07T17:21:51.596Z,110.72
2022-11-07T17:24:20.067Z,110.80
2022-11-07T17:26:50.026Z,112.50
2022-11-07T17:29:19.458Z,117.53
2022-11-07T17:31:50.332Z,117.18
2022-11-07T17:34:20.176Z,116.38
2022-11-07T17:36:54.384Z,112.30
2022-11-07T17:39:23.178Z,112.07
2022-11-07T17:41:54.724Z,109.43
2022-11-07T17:44:24.151Z,107.38
2022-11-07T17:46:56.621Z,108.72
2022-11-07T17:49:25.329Z,106.93
2022-11-07T17:51:54.527Z,111.45
2022-11-07T17:54:29.057Z,108.78
2022-11-07T17:56:57.751Z,105.75
2022-11-07T17:59:27.164Z,107.50
2022-11-07T18:01:58.025Z,108.13
2022-11-07T18:04:27.471Z,109.60
2022-11-07T18:06:55.681Z,113.53
2022-11-07T18:09:25.945Z,107.10
2022-11-07T18:11:55.519Z,106.88
2022-11-07T18:14:25.140Z,104.18
2022-11-07T18:16:57.132Z,103.57
2022-11-07T18:21:55.804Z,103.63
2022-11-07T18:24:25.309Z,102.18
2022-11-07T18:26:56.672Z,103.30
2022-11-07T18:29:27.595Z,101.28
2022-11-07T18:31:59.570Z,103.40
2022-11-07T18:34:28.198Z,106.60
2022-11-07T18:36:57.583Z,102.85
2022-11-07T18:39:26.269Z,103.10
2022-11-07T18:41:56.887Z,106.13
2022-11-07T18:44:25.302Z,102.18
2022-11-07T18:46:54.703Z,105.38
2022-11-07T18:49:24.796Z,105.45
2022-11-07T18:51:55.735Z,106.65
2022-11-07T18:54:26.201Z,107.07
2022-11-07T18:56:55.641Z,108.55
2022-11-07T18:59:25.010Z,105.70
2022-11-07T19:01:53.334Z,106.78
2022-11-07T19:04:22.868Z,114.07
2022-11-07T19:06:58.584Z,112.88
2022-11-07T19:09:30.852Z,108.10
2022-11-07T19:12:01.418Z,112.63
2022-11-07T19:14:31.534Z,114.13
2022-11-07T19:17:02.132Z,116.50
2022-11-07T19:19:35.335Z,117.63
2022-11-07T19:22:05.642Z,112.75
2022-11-07T19:24:35.697Z,114.85
2022-11-07T19:27:05.278Z,115.15
2022-11-07T19:29:33.793Z,112.85
2022-11-07T19:32:03.537Z,111.93
2022-11-07T19:34:35.029Z,111.28
2022-11-07T19:37:04.428Z,110.07
2022-11-07T19:39:36.420Z,109.85
2022-11-07T19:42:06.418Z,110.55
2022-11-07T19:44:36.357Z,117.10
2022-11-07T19:47:06.326Z,110.18
2022-11-07T19:49:37.550Z,111.90
2022-11-07T19:52:07.331Z,116.38
2022-11-07T19:54:35.675Z,119.30
2022-11-07T19:57:03.866Z,111.88
2022-11-07T19:59:32.207Z,111.50
2022-11-07T20:02:31.103Z,110.00
2022-11-07T20:04:53.796Z,110.63
2022-11-07T20:07:24.802Z,107.22
2022-11-07T20:09:54.888Z,108.97
2022-11-07T20:12:24.276Z,109.38
2022-11-07T20:14:54.028Z,111.68
2022-11-07T20:21:58.236Z,110.40
2022-11-07T20:24:28.022Z,111.53
2022-11-07T20:26:56.803Z,110.38
2022-11-07T20:29:26.307Z,107.38
2022-11-07T20:31:55.618Z,109.30
2022-11-07T20:34:26.824Z,112.40
2022-11-07T20:36:56.839Z,112.95
2022-11-07T20:39:26.174Z,113.50
2022-11-07T20:41:55.496Z,110.38
2022-11-07T20:44:23.908Z,111.05
2022-11-07T20:46:52.923Z,111.57
2022-11-07T20:49:22.306Z,108.57
2022-11-07T20:51:53.591Z,109.50
2022-11-07T20:54:25.494Z,107.65
2022-11-07T20:56:55.362Z,109.05
2022-11-07T20:59:25.943Z,109.25
2022-11-07T21:01:58.806Z,108.90
2022-11-07T21:04:49.915Z,106.22
2022-11-07T21:07:24.906Z,106.10
2022-11-07T21:09:54.888Z,108.40
2022-11-07T21:12:24.939Z,107.80
2022-11-07T21:14:54.631Z,105.93
2022-11-07T21:17:23.997Z,106.10
2022-11-07T21:19:53.752Z,108.75
2022-11-07T21:22:29.212Z,111.35
2022-11-07T21:25:01.734Z,107.50
2022-11-07T21:27:37.501Z,110.10
2022-11-07T21:30:08.745Z,109.57
2022-11-07T21:32:39.421Z,110.93
2022-11-07T21:35:09.927Z,111.50
2022-11-07T21:37:38.550Z,114.90
2022-11-07T21:40:10.446Z,113.53
2022-11-07T21:42:40.978Z,120.05
2022-11-07T21:45:12.211Z,115.85
2022-11-07T21:47:45.675Z,114.72
2022-11-07T21:50:38.510Z,112.78
2022-11-07T21:53:05.756Z,108.85
2022-11-07T21:55:36.596Z,112.25
2022-11-07T21:58:04.749Z,111.55
2022-11-07T22:00:36.471Z,111.30
2022-11-07T22:03:05.651Z,108.97
2022-11-07T22:05:36.554Z,109.93
2022-11-07T22:08:06.508Z,106.45
2022-11-07T22:10:37.246Z,108.13
2022-11-07T22:13:07.403Z,106.90
2022-11-07T22:15:37.188Z,106.40
2022-11-07T22:18:05.932Z,105.93
2022-11-07T22:20:34.564Z,106.43
2022-11-07T22:23:03.876Z,107.03
2022-11-07T22:25:33.822Z,110.20
2022-11-07T22:28:04.455Z,108.57
2022-11-07T22:30:34.135Z,108.60
2022-11-07T22:33:03.740Z,105.40
2022-11-07T22:35:33.811Z,100.78
2022-11-07T22:38:04.548Z,103.60
2022-11-07T22:40:32.972Z,103.53
2022-11-07T22:43:01.629Z,105.07
2022-11-07T22:45:31.392Z,106.40
2022-11-07T22:48:01.107Z,106.45
2022-11-07T22:50:29.697Z,109.95
2022-11-07T22:52:59.036Z,108.50
2022-11-07T22:55:30.375Z,109.70
2022-11-07T22:58:01.944Z,108.22
2022-11-07T23:00:33.436Z,108.85
2022-11-07T23:03:03.045Z,110.28
2022-11-07T23:05:31.871Z,109.43
2022-11-07T23:08:00.032Z,110.97
2022-11-07T23:10:29.374Z,112.60
2022-11-07T23:12:59.047Z,117.05
2022-11-07T23:15:28.396Z,112.00
2022-11-07T23:18:01.446Z,113.00
2022-11-07T23:20:48.464Z,113.80
2022-11-07T23:23:18.165Z,111.55
2022-11-07T23:25:47.485Z,114.28
2022-11-07T23:28:15.863Z,113.53
2022-11-07T23:30:45.548Z,116.32
2022-11-07T23:33:16.596Z,110.25
2022-11-07T23:35:48.038Z,114.35
2022-11-07T23:38:19.155Z,113.28
2022-11-07T23:40:48.824Z,110.93
2022-11-07T23:43:18.289Z,116.32
2022-11-07T23:46:03.869Z,116.25
2022-11-07T23:48:53.452Z,117.20
2022-11-07T23:51:21.987Z,113.32
2022-11-07T23:54:08.939Z,117.88
2022-11-07T23:56:38.198Z,117.15
2022-11-07T23:59:26.073Z,115.85
